Time;durP1;ratioP1;P1;durP2;ratioP2;P2;SDS_P1;SDS_P2;PMS_P1;PMS_P2;Temp;Humidity;BMP_temperature;BMP_pressure;BME280_temperature;BME280_humidity;BME280_pressure;Samples;Min_cycle;Max_cycle;Signal;HPM_P1;HPM_P2
2022/08/23 00:00:17;;;;;;;;;;;;;;;;;;5054529;28;19979;-76
2022/08/23 00:02:43;;;;;;;;;;;;;;;;;;5034991;28;19968;-76
2022/08/23 00:05:10;;;;;;;;;;;;;;;;;;5075990;22;19925;-75
2022/08/23 00:07:38;;;;;;;;;;;;;;;;;;5074886;28;19924;-74
2022/08/23 00:10:04;;;;;;;;;;;;;;;;;;5074543;28;19982;-75
2022/08/23 00:12:32;;;;;;;;;;;;;;;;;;5075054;28;20057;-75
2022/08/23 00:14:59;;;;;;;;;;;;;;;;;;5074365;28;20023;-75
2022/08/23 00:17:26;;;;;;;;;;;;;;;;;;5074908;28;19925;-75
2022/08/23 00:19:52;;;;;;;;;;;;;;;;;;5074928;28;19970;-75
2022/08/23 00:22:18;;;;;;;;;;;;;;;;;;5075224;28;20019;-75
2022/08/23 00:24:45;;;;;;;;;;;;;;;;;;5074929;28;19971;-75
2022/08/23 00:27:13;;;;;;;;;;;;;;;;;;5075038;28;19991;-75
2022/08/23 00:29:42;;;;;;;;;;;;;;;;;;5074600;28;20345;-75
2022/08/23 00:32:10;;;;;;;;;;;;;;;;;;5074946;28;19960;-75
2022/08/23 00:34:37;;;;;;;;;;;;;;;;;;5074600;28;20465;-74
2022/08/23 00:37:05;;;;;;;;;;;;;;;;;;5074915;28;20019;-75
2022/08/23 00:39:32;;;;;;;;;;;;;;;;;;5077639;28;20014;-75
2022/08/23 00:41:59;;;;;;;;;;;;;;;;;;5079803;28;19985;-76
2022/08/23 00:50:03;;;;;;;;;;;;;;;;;;5073618;28;20021;-75
2022/08/23 00:52:33;;;;;;;;;;;;;;;;;;5073777;28;19972;-75
2022/08/23 00:54:59;;;;;;;;;;;;;;;;;;5073624;28;20044;-75
2022/08/23 00:57:27;;;;;;;;;;;;;;;;;;5073863;28;19924;-75
2022/08/23 00:59:54;;;;;;;;;;;;;;;;;;5073214;28;19924;-75
2022/08/23 01:02:22;;;;;;;;;;;;;;;;;;5073336;28;19924;-75
2022/08/23 01:04:51;;;;;;;;;;;;;;;;;;5073097;28;20003;-75
2022/08/23 01:07:22;;;;;;;;;;;;;;;;;;5073510;28;19970;-74
2022/08/23 01:09:49;;;;;;;;;;;;;;;;;;5072730;28;19931;-74
2022/08/23 01:12:19;;;;;;;;;;;;;;;;;;5073184;28;19925;-75
2022/08/23 01:14:47;;;;;;;;;;;;;;;;;;5073229;28;20003;-74
2022/08/23 01:17:16;;;;;;;;;;;;;;;;;;5073482;28;19924;-74
2022/08/23 01:19:47;;;;;;;;;;;;;;;;;;5073157;28;20012;-76
2022/08/23 01:22:16;;;;;;;;;;;;;;;;;;5073180;28;20019;-75
2022/08/23 01:24:45;;;;;;;;;;;;;;;;;;5073010;28;19928;-75
2022/08/23 01:27:12;;;;;;;;;;;;;;;;;;5073133;28;19924;-75
2022/08/23 01:29:39;;;;;;;;;;;;;;;;;;5073080;28;20015;-75
2022/08/23 01:32:06;;;;;;;;;;;;;;;;;;5072855;28;19931;-75
2022/08/23 01:34:33;;;;;;;;;;;;;;;;;;5073378;28;19931;-75
2022/08/23 01:37:00;;;;;;;;;;;;;;;;;;5073089;28;19976;-76
2022/08/23 01:39:27;;;;;;;;;;;;;;;;;;5073578;28;19970;-74
2022/08/23 01:41:54;;;;;;;;;;;;;;;;;;5072879;28;20390;-74
2022/08/23 01:44:21;;;;;;;;;;;;;;;;;;5072843;28;20003;-74
2022/08/23 01:46:47;;;;;;;;;;;;;;;;;;5073351;28;19924;-74
2022/08/23 01:49:14;;;;;;;;;;;;;;;;;;5072608;28;20386;-75
2022/08/23 01:51:40;;;;;;;;;;;;;;;;;;5072762;28;19924;-76
2022/08/23 01:54:07;;;;;;;;;;;;;;;;;;5072557;28;19924;-76
2022/08/23 01:56:34;;;;;;;;;;;;;;;;;;5072384;28;19992;-75
2022/08/23 01:59:02;;;;;;;;;;;;;;;;;;5072832;28;19924;-74
2022/08/23 02:01:29;;;;;;;;;;;;;;;;;;5072230;28;19972;-75
2022/08/23 02:03:55;;;;;;;;;;;;;;;;;;5072362;28;19964;-74
2022/08/23 02:06:21;;;;;;;;;;;;;;;;;;5072156;28;20023;-74
2022/08/23 02:09:03;;;;;;;;;;;;;;;;;;5072511;28;20045;-75
2022/08/23 02:11:31;;;;;;;;;;;;;;;;;;5072138;28;19935;-75
2022/08/23 02:13:59;;;;;;;;;;;;;;;;;;5072525;28;19963;-75
2022/08/23 02:16:28;;;;;;;;;;;;;;;;;;5072462;28;20015;-75
2022/08/23 02:18:55;;;;;;;;;;;;;;;;;;5072655;28;20012;-75
2022/08/23 02:21:22;;;;;;;;;;;;;;;;;;5072580;28;20296;-75
2022/08/23 02:23:50;;;;;;;;;;;;;;;;;;5076317;28;19960;-74
2022/08/23 02:26:16;;;;;;;;;;;;;;;;;;5076532;28;19924;-75
2022/08/23 02:28:43;;;;;;;;;;;;;;;;;;5076236;28;20463;-75
2022/08/23 02:31:10;;;;;;;;;;;;;;;;;;5076404;28;19929;-74
2022/08/23 02:33:38;;;;;;;;;;;;;;;;;;5076237;28;20004;-75
2022/08/23 02:39:07;;;;;;;;;;;;;;;;;;5074914;28;19942;-74
2022/08/23 02:41:33;;;;;;;;;;;;;;;;;;5076050;28;20019;-76
2022/08/23 02:44:00;;;;;;;;;;;;;;;;;;5076146;28;19935;-75
2022/08/23 02:46:26;;;;;;;;;;;;;;;;;;5076302;28;19924;-74
2022/08/23 02:48:55;;;;;;;;;;;;;;;;;;5076219;28;20019;-74
2022/08/23 02:51:22;;;;;;;;;;;;;;;;;;5076308;28;19924;-74
2022/08/23 02:53:48;;;;;;;;;;;;;;;;;;5075876;28;19924;-74
2022/08/23 02:56:15;;;;;;;;;;;;;;;;;;5076030;28;20024;-75
2022/08/23 02:58:44;;;;;;;;;;;;;;;;;;5075925;28;19924;-75
2022/08/23 03:01:14;;;;;;;;;;;;;;;;;;5075870;28;19965;-74
2022/08/23 03:03:40;;;;;;;;;;;;;;;;;;5075681;28;19924;-75
2022/08/23 03:06:08;;;;;;;;;;;;;;;;;;5075662;28;19924;-75
2022/08/23 03:08:35;;;;;;;;;;;;;;;;;;5075908;28;20439;-74
2022/08/23 03:11:01;;;;;;;;;;;;;;;;;;5075287;28;20031;-74
2022/08/23 03:13:28;;;;;;;;;;;;;;;;;;5075374;28;19964;-74
2022/08/23 03:15:54;;;;;;;;;;;;;;;;;;5075644;28;20031;-74
2022/08/23 03:18:21;;;;;;;;;;;;;;;;;;5075388;28;20302;-74
2022/08/23 03:20:47;;;;;;;;;;;;;;;;;;5075301;28;20399;-74
2022/08/23 03:23:15;;;;;;;;;;;;;;;;;;5075486;28;19924;-74
2022/08/23 03:25:42;;;;;;;;;;;;;;;;;;5074992;28;19958;-76
2022/08/23 03:28:08;;;;;;;;;;;;;;;;;;5075464;28;20144;-75
2022/08/23 03:30:35;;;;;;;;;;;;;;;;;;5075454;28;19970;-74
2022/08/23 03:33:01;;;;;;;;;;;;;;;;;;5075282;28;19924;-75
2022/08/23 03:35:28;;;;;;;;;;;;;;;;;;5075055;28;20374;-74
2022/08/23 03:37:55;;;;;;;;;;;;;;;;;;5075436;28;20021;-76
2022/08/23 03:40:22;;;;;;;;;;;;;;;;;;5074966;28;20311;-75
2022/08/23 03:42:49;;;;;;;;;;;;;;;;;;5075508;28;19928;-76
2022/08/23 03:45:15;;;;;;;;;;;;;;;;;;5075316;28;20028;-75
2022/08/23 03:47:43;;;;;;;;;;;;;;;;;;5075179;28;19924;-76
2022/08/23 03:50:09;;;;;;;;;;;;;;;;;;5074990;28;20110;-77
2022/08/23 03:52:36;;;;;;;;;;;;;;;;;;5075130;28;19930;-76
2022/08/23 03:55:02;;;;;;;;;;;;;;;;;;5074696;28;19924;-75
2022/08/23 03:57:30;;;;;;;;;;;;;;;;;;5074886;28;20011;-74
2022/08/23 03:59:58;;;;;;;;;;;;;;;;;;5074879;28;20019;-75
2022/08/23 04:02:25;;;;;;;;;;;;;;;;;;5074608;28;20386;-76
2022/08/23 04:04:52;;;;;;;;;;;;;;;;;;5074433;28;20433;-75
2022/08/23 04:07:19;;;;;;;;;;;;;;;;;;5074658;28;19925;-74
2022/08/23 04:09:45;;;;;;;;;;;;;;;;;;5074605;28;19925;-74
2022/08/23 04:12:12;;;;;;;;;;;;;;;;;;5074733;28;19924;-74
2022/08/23 04:14:40;;;;;;;;;;;;;;;;;;5074347;28;19925;-75
2022/08/23 04:17:06;;;;;;;;;;;;;;;;;;5074454;28;20007;-75
2022/08/23 04:19:33;;;;;;;;;;;;;;;;;;5074545;28;19924;-75
2022/08/23 04:21:59;;;;;;;;;;;;;;;;;;5074562;28;20027;-76
2022/08/23 04:24:26;;;;;;;;;;;;;;;;;;5074404;28;20358;-75
2022/08/23 04:26:52;;;;;;;;;;;;;;;;;;5074233;28;20387;-76
2022/08/23 04:29:18;;;;;;;;;;;;;;;;;;5074392;28;20580;-75
2022/08/23 04:31:46;;;;;;;;;;;;;;;;;;5074546;28;20348;-75
2022/08/23 04:34:13;;;;;;;;;;;;;;;;;;5074065;28;20295;-75
2022/08/23 04:36:40;;;;;;;;;;;;;;;;;;5074486;28;19975;-76
2022/08/23 04:39:07;;;;;;;;;;;;;;;;;;5074854;28;19964;-74
2022/08/23 04:44:17;;;;;;;;;;;;;;;;;;5074400;28;19977;-75
2022/08/23 04:46:44;;;;;;;;;;;;;;;;;;5074577;28;19978;-74
2022/08/23 04:49:12;;;;;;;;;;;;;;;;;;5074798;28;19978;-76
2022/08/23 04:51:38;;;;;;;;;;;;;;;;;;5074953;28;19971;-75
2022/08/23 04:54:06;;;;;;;;;;;;;;;;;;5074251;28;19967;-75
2022/08/23 04:56:33;;;;;;;;;;;;;;;;;;5074231;28;20028;-76
2022/08/23 04:58:59;;;;;;;;;;;;;;;;;;5074546;28;20016;-75
2022/08/23 05:01:26;;;;;;;;;;;;;;;;;;5074222;28;20011;-75
2022/08/23 05:03:52;;;;;;;;;;;;;;;;;;5074274;28;19924;-75
2022/08/23 05:06:20;;;;;;;;;;;;;;;;;;5074103;28;19964;-76
2022/08/23 05:08:47;;;;;;;;;;;;;;;;;;5073893;28;20391;-75
2022/08/23 05:11:13;;;;;;;;;;;;;;;;;;5073783;28;19978;-75
2022/08/23 05:13:41;;;;;;;;;;;;;;;;;;5073660;28;20113;-74
2022/08/23 05:16:07;;;;;;;;;;;;;;;;;;5073453;28;20371;-74
2022/08/23 05:18:34;;;;;;;;;;;;;;;;;;5073654;28;20413;-76
2022/08/23 05:21:00;;;;;;;;;;;;;;;;;;5073424;28;19978;-75
2022/08/23 05:23:28;;;;;;;;;;;;;;;;;;5073347;28;20019;-75
2022/08/23 05:25:55;;;;;;;;;;;;;;;;;;5073675;28;20019;-75
2022/08/23 05:28:23;;;;;;;;;;;;;;;;;;5073866;28;19924;-74
2022/08/23 05:30:58;;;;;;;;;;;;;;;;;;5073196;28;20018;-75
2022/08/23 05:33:24;;;;;;;;;;;;;;;;;;5073514;28;19968;-75
2022/08/23 05:35:51;;;;;;;;;;;;;;;;;;5073279;28;19931;-75
2022/08/23 05:38:18;;;;;;;;;;;;;;;;;;5073335;28;20015;-75
2022/08/23 05:40:48;;;;;;;;;;;;;;;;;;5072995;28;19924;-75
2022/08/23 05:43:14;;;;;;;;;;;;;;;;;;5073405;28;19978;-75
2022/08/23 05:45:41;;;;;;;;;;;;;;;;;;5073199;28;20347;-75
2022/08/23 05:48:07;;;;;;;;;;;;;;;;;;5073229;28;20335;-75
2022/08/23 05:50:35;;;;;;;;;;;;;;;;;;5072553;28;20754;-75
2022/08/23 05:53:02;;;;;;;;;;;;;;;;;;5073114;28;20356;-75
2022/08/23 05:55:28;;;;;;;;;;;;;;;;;;5072663;28;19931;-75
2022/08/23 05:57:56;;;;;;;;;;;;;;;;;;5072258;28;19924;-75
2022/08/23 06:00:23;;;;;;;;;;;;;;;;;;5072678;28;19931;-75
2022/08/23 06:02:49;;;;;;;;;;;;;;;;;;5073088;28;19960;-75
2022/08/23 06:05:16;;;;;;;;;;;;;;;;;;5098590;22;20355;-78
2022/08/23 06:07:42;;;;;;;;;;;;;;;;;;5113312;28;19924;-77
2022/08/23 06:10:09;;;;;;;;;;;;;;;;;;5112834;28;20381;-78
2022/08/23 06:12:36;;;;;;;;;;;;;;;;;;5113793;28;19924;-77
2022/08/23 06:15:04;;;;;;;;;;;;;;;;;;5106045;28;19924;-77
2022/08/23 06:17:30;;;;;;;;;;;;;;;;;;5093365;28;20015;-78
2022/08/23 06:19:57;;;;;;;;;;;;;;;;;;5093802;28;19982;-78
2022/08/23 06:22:23;;;;;;;;;;;;;;;;;;5095233;28;19930;-76
2022/08/23 06:24:50;;;;;;;;;;;;;;;;;;5094617;28;20014;-78
2022/08/23 06:27:16;;;;;;;;;;;;;;;;;;5094988;28;19930;-78
2022/08/23 06:29:43;;;;;;;;;;;;;;;;;;5093501;28;20437;-78
2022/08/23 06:32:11;;;;;;;;;;;;;;;;;;5094784;28;19923;-77
2022/08/23 06:34:37;;;;;;;;;;;;;;;;;;5095620;28;19924;-77
2022/08/23 06:37:07;;;;;;;;;;;;;;;;;;5096610;28;19971;-76
2022/08/23 06:39:34;;;;;;;;;;;;;;;;;;5092558;28;20115;-77
2022/08/23 06:42:02;;;;;;;;;;;;;;;;;;5095849;28;19963;-77
2022/08/23 06:44:29;;;;;;;;;;;;;;;;;;5096938;28;19928;-77
2022/08/23 06:46:56;;;;;;;;;;;;;;;;;;5095947;28;19924;-77
2022/08/23 06:49:24;;;;;;;;;;;;;;;;;;5095016;28;19924;-78
2022/08/23 06:51:52;;;;;;;;;;;;;;;;;;5093264;28;20390;-77
2022/08/23 06:54:20;;;;;;;;;;;;;;;;;;5092500;28;19975;-77
2022/08/23 06:56:47;;;;;;;;;;;;;;;;;;5092268;28;19990;-78
2022/08/23 06:59:14;;;;;;;;;;;;;;;;;;5101402;28;19970;-77
2022/08/23 07:01:41;;;;;;;;;;;;;;;;;;5098638;28;19924;-78
2022/08/23 07:04:09;;;;;;;;;;;;;;;;;;5095643;28;19967;-78
2022/08/23 07:06:37;;;;;;;;;;;;;;;;;;5095075;28;19924;-78
2022/08/23 07:09:04;;;;;;;;;;;;;;;;;;5098854;28;19971;-78
2022/08/23 07:11:31;;;;;;;;;;;;;;;;;;5099085;28;19970;-78
2022/08/23 07:13:59;;;;;;;;;;;;;;;;;;5101724;28;19946;-79
2022/08/23 07:16:26;;;;;;;;;;;;;;;;;;5104340;28;19931;-78
2022/08/23 07:18:54;;;;;;;;;;;;;;;;;;5101338;28;19978;-78
2022/08/23 07:21:20;;;;;;;;;;;;;;;;;;5097575;28;20019;-79
2022/08/23 07:23:48;;;;;;;;;;;;;;;;;;5098177;28;19974;-79
2022/08/23 07:26:16;;;;;;;;;;;;;;;;;;5098331;28;20019;-79
2022/08/23 07:28:42;;;;;;;;;;;;;;;;;;5098517;28;20011;-80
2022/08/23 07:31:10;;;;;;;;;;;;;;;;;;5098181;28;19928;-79
2022/08/23 07:33:36;;;;;;;;;;;;;;;;;;5097461;28;19924;-78
2022/08/23 07:36:03;;;;;;;;;;;;;;;;;;5098282;28;19985;-79
2022/08/23 07:38:30;;;;;;;;;;;;;;;;;;5098042;28;19928;-79
2022/08/23 07:40:58;;;;;;;;;;;;;;;;;;5097484;28;19924;-79
2022/08/23 07:43:24;;;;;;;;;;;;;;;;;;5097363;28;19981;-78
2022/08/23 07:45:51;;;;;;;;;;;;;;;;;;5098513;28;20023;-80
2022/08/23 07:48:17;;;;;;;;;;;;;;;;;;5097842;28;19996;-79
2022/08/23 07:50:50;;;;;;;;;;;;;;;;;;5098257;28;20012;-79
2022/08/23 07:53:17;;;;;;;;;;;;;;;;;;5097477;28;19960;-79
2022/08/23 07:55:43;;;;;;;;;;;;;;;;;;5097952;28;20014;-79
2022/08/23 07:58:11;;;;;;;;;;;;;;;;;;5098325;28;20362;-78
2022/08/23 08:00:38;;;;;;;;;;;;;;;;;;5095350;28;19924;-79
2022/08/23 08:03:04;;;;;;;;;;;;;;;;;;5077645;28;19924;-80
2022/08/23 08:05:31;;;;;;;;;;;;;;;;;;5077623;28;19976;-79
2022/08/23 08:07:58;;;;;;;;;;;;;;;;;;5077919;28;20023;-79
2022/08/23 08:10:24;;;;;;;;;;;;;;;;;;5076590;28;20394;-79
2022/08/23 08:12:51;;;;;;;;;;;;;;;;;;5079030;28;19924;-79
2022/08/23 08:15:19;;;;;;;;;;;;;;;;;;5077156;28;19967;-77
2022/08/23 08:17:46;;;;;;;;;;;;;;;;;;5076956;28;20023;-79
2022/08/23 08:20:14;;;;;;;;;;;;;;;;;;5075745;28;20000;-78
2022/08/23 08:22:40;;;;;;;;;;;;;;;;;;5077580;28;20024;-79
2022/08/23 08:25:07;;;;;;;;;;;;;;;;;;5077152;28;19924;-79
2022/08/23 08:27:34;;;;;;;;;;;;;;;;;;5078309;28;20011;-78
2022/08/23 08:30:00;;;;;;;;;;;;;;;;;;5076456;28;20374;-80
2022/08/23 08:32:28;;;;;;;;;;;;;;;;;;5077150;28;20012;-79
2022/08/23 08:34:55;;;;;;;;;;;;;;;;;;5077095;28;20015;-80
2022/08/23 08:37:21;;;;;;;;;;;;;;;;;;5077077;28;20375;-78
2022/08/23 08:39:48;;;;;;;;;;;;;;;;;;5076512;28;19967;-79
2022/08/23 08:42:24;;;;;;;;;;;;;;;;;;5077137;28;20007;-78
2022/08/23 08:44:52;;;;;;;;;;;;;;;;;;5076800;28;20436;-79
2022/08/23 08:47:21;;;;;;;;;;;;;;;;;;5077146;28;19996;-81
2022/08/23 08:49:52;;;;;;;;;;;;;;;;;;5076741;28;19979;-80
2022/08/23 08:52:22;;;;;;;;;;;;;;;;;;5076756;28;20015;-80
2022/08/23 08:54:49;;;;;;;;;;;;;;;;;;5078273;28;20019;-79
2022/08/23 08:57:22;;;;;;;;;;;;;;;;;;5077867;28;19925;-80
2022/08/23 08:59:52;;;;;;;;;;;;;;;;;;5076593;28;19925;-81
2022/08/23 09:02:20;;;;;;;;;;;;;;;;;;5094036;28;19959;-79
2022/08/23 09:04:47;;;;;;;;;;;;;;;;;;5097737;28;19955;-79
2022/08/23 09:07:19;;;;;;;;;;;;;;;;;;5097074;28;20394;-79
2022/08/23 09:09:57;;;;;;;;;;;;;;;;;;5097474;28;19993;-79
2022/08/23 09:12:28;;;;;;;;;;;;;;;;;;5097428;28;19924;-78
2022/08/23 09:15:05;;;;;;;;;;;;;;;;;;5097059;28;19924;-80
2022/08/23 09:17:37;;;;;;;;;;;;;;;;;;5096864;28;19924;-79
2022/08/23 09:20:05;;;;;;;;;;;;;;;;;;5096448;28;19930;-80
2022/08/23 09:22:35;;;;;;;;;;;;;;;;;;5097796;28;20003;-79
2022/08/23 09:25:02;;;;;;;;;;;;;;;;;;5095606;28;20030;-80
2022/08/23 09:27:28;;;;;;;;;;;;;;;;;;5096933;28;20007;-79
2022/08/23 09:29:56;;;;;;;;;;;;;;;;;;5098159;28;20400;-79
2022/08/23 09:32:27;;;;;;;;;;;;;;;;;;5098326;28;19924;-78
2022/08/23 09:35:04;;;;;;;;;;;;;;;;;;5096755;28;20011;-79
2022/08/23 09:37:32;;;;;;;;;;;;;;;;;;5096786;28;19970;-80
2022/08/23 09:40:15;;;;;;;;;;;;;;;;;;5096293;28;19971;-79
2022/08/23 09:42:42;;;;;;;;;;;;;;;;;;5098041;28;19964;-79
2022/08/23 09:45:25;;;;;;;;;;;;;;;;;;5098744;28;19983;-78
2022/08/23 09:47:52;;;;;;;;;;;;;;;;;;5098615;28;20015;-80
2022/08/23 09:50:25;;;;;;;;;;;;;;;;;;5098311;28;20398;-79
2022/08/23 09:52:54;;;;;;;;;;;;;;;;;;5103113;28;19919;-79
2022/08/23 09:55:31;;;;;;;;;;;;;;;;;;5100489;28;19935;-79
2022/08/23 09:57:58;;;;;;;;;;;;;;;;;;5099615;28;19924;-78
2022/08/23 10:00:27;;;;;;;;;;;;;;;;;;5096173;28;19924;-78
2022/08/23 10:02:56;;;;;;;;;;;;;;;;;;5076004;28;19924;-79
2022/08/23 10:05:28;;;;;;;;;;;;;;;;;;5075720;28;19931;-79
2022/08/23 10:07:57;;;;;;;;;;;;;;;;;;5076003;28;20019;-79
2022/08/23 10:10:27;;;;;;;;;;;;;;;;;;5074992;28;20011;-79
2022/08/23 10:12:55;;;;;;;;;;;;;;;;;;5074889;28;20019;-79
2022/08/23 10:15:23;;;;;;;;;;;;;;;;;;5075299;28;19978;-79
2022/08/23 10:17:54;;;;;;;;;;;;;;;;;;5075287;28;19928;-79
2022/08/23 10:20:29;;;;;;;;;;;;;;;;;;5075336;28;19929;-79
2022/08/23 10:22:58;;;;;;;;;;;;;;;;;;5075950;28;20063;-80
2022/08/23 10:25:32;;;;;;;;;;;;;;;;;;5075864;28;19963;-79
2022/08/23 10:30:51;;;;;;;;;;;;;;;;;;5091435;28;19931;-77
2022/08/23 10:33:20;;;;;;;;;;;;;;;;;;5095472;28;19924;-77
2022/08/23 10:35:49;;;;;;;;;;;;;;;;;;5097396;28;19912;-77
2022/08/23 10:38:31;;;;;;;;;;;;;;;;;;5092450;28;19931;-77
2022/08/23 10:41:01;;;;;;;;;;;;;;;;;;5077489;28;19931;-78
2022/08/23 10:43:34;;;;;;;;;;;;;;;;;;5077541;28;20359;-78
2022/08/23 10:46:01;;;;;;;;;;;;;;;;;;5078642;28;19935;-78
2022/08/23 10:48:30;;;;;;;;;;;;;;;;;;5078668;28;20395;-79
2022/08/23 10:50:57;;;;;;;;;;;;;;;;;;5078771;28;20454;-79
2022/08/23 10:53:27;;;;;;;;;;;;;;;;;;5078767;28;19999;-78
2022/08/23 10:56:02;;;;;;;;;;;;;;;;;;5079671;28;19971;-79
2022/08/23 10:58:32;;;;;;;;;;;;;;;;;;5080216;28;19924;-79
2022/08/23 11:00:59;;;;;;;;;;;;;;;;;;5085482;28;19930;-78
2022/08/23 11:03:28;;;;;;;;;;;;;;;;;;5101329;28;20291;-77
2022/08/23 11:06:13;;;;;;;;;;;;;;;;;;5106252;28;19980;-81
2022/08/23 11:08:45;;;;;;;;;;;;;;;;;;5105085;28;19924;-80
2022/08/23 11:11:26;;;;;;;;;;;;;;;;;;5099413;28;19957;-80
2022/08/23 11:13:54;;;;;;;;;;;;;;;;;;5098681;28;20002;-80
2022/08/23 11:16:25;;;;;;;;;;;;;;;;;;5099554;28;20018;-80
2022/08/23 11:18:51;;;;;;;;;;;;;;;;;;5099183;28;19928;-80
2022/08/23 11:21:37;;;;;;;;;;;;;;;;;;5099001;28;20351;-81
2022/08/23 11:24:21;;;;;;;;;;;;;;;;;;5099022;28;20458;-81
2022/08/23 11:27:05;;;;;;;;;;;;;;;;;;5105967;28;19931;-79
2022/08/23 11:29:37;;;;;;;;;;;;;;;;;;5108557;28;19963;-77
2022/08/23 11:32:18;;;;;;;;;;;;;;;;;;5109446;28;19996;-78
2022/08/23 11:34:48;;;;;;;;;;;;;;;;;;5095663;28;20027;-77
2022/08/23 11:37:27;;;;;;;;;;;;;;;;;;5105839;28;19976;-78
2022/08/23 11:40:09;;;;;;;;;;;;;;;;;;5107127;28;19963;-77
2022/08/23 11:42:47;;;;;;;;;;;;;;;;;;5104653;28;20382;-78
2022/08/23 11:45:23;;;;;;;;;;;;;;;;;;5104125;28;19963;-78
2022/08/23 11:47:52;;;;;;;;;;;;;;;;;;5110659;28;19935;-77
2022/08/23 11:50:25;;;;;;;;;;;;;;;;;;5101423;28;19998;-80
2022/08/23 11:53:04;;;;;;;;;;;;;;;;;;5099956;28;19963;-79
2022/08/23 11:55:38;;;;;;;;;;;;;;;;;;5105771;28;19971;-77
2022/08/23 11:58:19;;;;;;;;;;;;;;;;;;5110154;28;19924;-77
2022/08/23 12:01:05;;;;;;;;;;;;;;;;;;5107016;28;20031;-78
2022/08/23 12:03:34;;;;;;;;;;;;;;;;;;5086160;28;19936;-80
2022/08/23 12:06:07;;;;;;;;;;;;;;;;;;5086607;22;19932;-77
2022/08/23 12:08:47;;;;;;;;;;;;;;;;;;5079200;28;19925;-76
2022/08/23 12:11:15;;;;;;;;;;;;;;;;;;5079706;28;19924;-82
2022/08/23 12:14:02;;;;;;;;;;;;;;;;;;5077241;28;19928;-77
2022/08/23 12:16:35;;;;;;;;;;;;;;;;;;5074554;28;19924;-80
2022/08/23 12:19:05;;;;;;;;;;;;;;;;;;5082285;28;20445;-78
2022/08/23 12:21:34;;;;;;;;;;;;;;;;;;5083516;28;19955;-80
2022/08/23 12:24:02;;;;;;;;;;;;;;;;;;5081484;28;19978;-79
2022/08/23 12:26:34;;;;;;;;;;;;;;;;;;5081977;28;19939;-80
2022/08/23 12:29:03;;;;;;;;;;;;;;;;;;5077641;28;19975;-79
2022/08/23 12:31:33;;;;;;;;;;;;;;;;;;5078751;28;19976;-79
2022/08/23 12:34:18;;;;;;;;;;;;;;;;;;5078056;28;19924;-80
2022/08/23 12:36:53;;;;;;;;;;;;;;;;;;5082930;28;19964;-77
2022/08/23 12:39:23;;;;;;;;;;;;;;;;;;5076017;28;19924;-77
2022/08/23 12:41:52;;;;;;;;;;;;;;;;;;5074525;28;19970;-80
2022/08/23 12:44:21;;;;;;;;;;;;;;;;;;5079647;28;19952;-80
2022/08/23 12:46:48;;;;;;;;;;;;;;;;;;5080631;28;19929;-79
2022/08/23 12:49:23;;;;;;;;;;;;;;;;;;5075346;28;19952;-80
2022/08/23 12:51:52;;;;;;;;;;;;;;;;;;5076206;28;19947;-78
2022/08/23 12:54:21;;;;;;;;;;;;;;;;;;5073653;28;20341;-78
2022/08/23 12:56:50;;;;;;;;;;;;;;;;;;5073565;28;20353;-78
2022/08/23 12:59:37;;;;;;;;;;;;;;;;;;5073910;28;19924;-77
2022/08/23 13:02:05;;;;;;;;;;;;;;;;;;5068340;28;20345;-78
2022/08/23 13:04:33;;;;;;;;;;;;;;;;;;5076145;28;19924;-79
2022/08/23 13:07:03;;;;;;;;;;;;;;;;;;5072856;28;19932;-78
2022/08/23 13:09:31;;;;;;;;;;;;;;;;;;5077397;28;19950;-79
2022/08/23 13:11:58;;;;;;;;;;;;;;;;;;5078436;28;19932;-78
2022/08/23 13:14:26;;;;;;;;;;;;;;;;;;5079494;28;19967;-79
2022/08/23 13:16:57;;;;;;;;;;;;;;;;;;5079460;28;19964;-77
2022/08/23 13:19:26;;;;;;;;;;;;;;;;;;5073436;28;20187;-76
2022/08/23 13:22:10;;;;;;;;;;;;;;;;;;5073534;28;19992;-76
2022/08/23 13:24:38;;;;;;;;;;;;;;;;;;5073917;28;19925;-76
2022/08/23 13:27:16;;;;;;;;;;;;;;;;;;5073677;28;20450;-77
2022/08/23 13:29:50;;;;;;;;;;;;;;;;;;5072712;28;19924;-78
2022/08/23 13:32:30;;;;;;;;;;;;;;;;;;5072815;28;20339;-77
2022/08/23 13:35:11;;;;;;;;;;;;;;;;;;5078556;28;19935;-80
2022/08/23 13:37:43;;;;;;;;;;;;;;;;;;5078319;28;20306;-80
2022/08/23 13:40:13;;;;;;;;;;;;;;;;;;5077580;28;19954;-80
2022/08/23 13:42:47;;;;;;;;;;;;;;;;;;5078247;28;20339;-80
2022/08/23 13:45:17;;;;;;;;;;;;;;;;;;5077728;28;20209;-80
2022/08/23 13:47:47;;;;;;;;;;;;;;;;;;5075861;28;19924;-78
2022/08/23 13:50:15;;;;;;;;;;;;;;;;;;5075957;28;20497;-79
2022/08/23 13:52:43;;;;;;;;;;;;;;;;;;5081462;28;19924;-80
2022/08/23 13:55:09;;;;;;;;;;;;;;;;;;5079238;28;19985;-80
2022/08/23 13:57:39;;;;;;;;;;;;;;;;;;5077781;28;19986;-80
2022/08/23 14:02:43;;;;;;;;;;;;;;;;;;5064559;28;19928;-77
2022/08/23 14:05:09;;;;;;;;;;;;;;;;;;5057898;28;19928;-80
2022/08/23 14:07:36;;;;;;;;;;;;;;;;;;5065086;28;20012;-78
2022/08/23 14:10:04;;;;;;;;;;;;;;;;;;5052656;28;20027;-77
2022/08/23 14:12:33;;;;;;;;;;;;;;;;;;5058050;28;19925;-78
2022/08/23 14:15:00;;;;;;;;;;;;;;;;;;5068107;28;19952;-79
2022/08/23 14:17:28;;;;;;;;;;;;;;;;;;5068736;28;19925;-77
2022/08/23 14:19:54;;;;;;;;;;;;;;;;;;5063561;28;19931;-79
2022/08/23 14:22:20;;;;;;;;;;;;;;;;;;5054862;28;19979;-78
2022/08/23 14:24:47;;;;;;;;;;;;;;;;;;5070572;28;19947;-78
2022/08/23 14:27:15;;;;;;;;;;;;;;;;;;5069065;28;19925;-79
2022/08/23 14:29:41;;;;;;;;;;;;;;;;;;5059545;28;20328;-77
2022/08/23 14:32:08;;;;;;;;;;;;;;;;;;5073378;28;19924;-77
2022/08/23 14:34:35;;;;;;;;;;;;;;;;;;5073547;28;19909;-77
2022/08/23 14:37:01;;;;;;;;;;;;;;;;;;5062746;28;19931;-77
2022/08/23 14:39:28;;;;;;;;;;;;;;;;;;5053647;28;20015;-78
2022/08/23 14:41:54;;;;;;;;;;;;;;;;;;5057387;28;20303;-78
2022/08/23 14:44:22;;;;;;;;;;;;;;;;;;5052762;28;20458;-76
2022/08/23 14:46:49;;;;;;;;;;;;;;;;;;5056924;28;20019;-80
2022/08/23 14:49:19;;;;;;;;;;;;;;;;;;5055530;28;19968;-79
2022/08/23 14:51:46;;;;;;;;;;;;;;;;;;5052630;28;19974;-79
2022/08/23 14:54:14;;;;;;;;;;;;;;;;;;5052610;28;19964;-78
2022/08/23 14:56:41;;;;;;;;;;;;;;;;;;5052298;28;19973;-78
2022/08/23 14:59:07;;;;;;;;;;;;;;;;;;5051724;28;19970;-78
2022/08/23 15:01:35;;;;;;;;;;;;;;;;;;5062853;28;19925;-80
2022/08/23 15:04:02;;;;;;;;;;;;;;;;;;5076689;28;19964;-80
2022/08/23 15:06:29;;;;;;;;;;;;;;;;;;5075663;28;19932;-78
2022/08/23 15:08:56;;;;;;;;;;;;;;;;;;5072905;28;19925;-78
2022/08/23 15:11:23;;;;;;;;;;;;;;;;;;5075032;28;19924;-79
2022/08/23 15:13:49;;;;;;;;;;;;;;;;;;5074776;28;20019;-80
2022/08/23 15:16:17;;;;;;;;;;;;;;;;;;5074719;28;19968;-80
2022/08/23 15:18:46;;;;;;;;;;;;;;;;;;5073429;28;19924;-78
2022/08/23 15:21:13;;;;;;;;;;;;;;;;;;5072122;28;20367;-78
2022/08/23 15:23:40;;;;;;;;;;;;;;;;;;5074838;28;19929;-80
2022/08/23 15:26:06;;;;;;;;;;;;;;;;;;5073909;28;19946;-78
2022/08/23 15:28:33;;;;;;;;;;;;;;;;;;5072977;28;19975;-78
2022/08/23 15:30:59;;;;;;;;;;;;;;;;;;5075398;28;19928;-78
2022/08/23 15:33:26;;;;;;;;;;;;;;;;;;5075508;28;19978;-78
2022/08/23 15:35:55;;;;;;;;;;;;;;;;;;5079349;28;20383;-80
2022/08/23 15:38:22;;;;;;;;;;;;;;;;;;5080860;28;19944;-79
2022/08/23 15:40:50;;;;;;;;;;;;;;;;;;5080838;28;19955;-80
2022/08/23 15:43:16;;;;;;;;;;;;;;;;;;5077358;28;19982;-79
2022/08/23 15:45:43;;;;;;;;;;;;;;;;;;5081324;28;19928;-80
2022/08/23 15:48:14;;;;;;;;;;;;;;;;;;5080666;28;19929;-80
2022/08/23 15:50:43;;;;;;;;;;;;;;;;;;5081452;28;19925;-80
2022/08/23 15:53:12;;;;;;;;;;;;;;;;;;5078927;28;20373;-78
2022/08/23 15:55:39;;;;;;;;;;;;;;;;;;5080500;28;19932;-80
2022/08/23 15:58:05;;;;;;;;;;;;;;;;;;5076509;28;19928;-77
2022/08/23 16:00:32;;;;;;;;;;;;;;;;;;5077213;28;19930;-78
2022/08/23 16:02:58;;;;;;;;;;;;;;;;;;5079613;28;20428;-80
2022/08/23 16:05:25;;;;;;;;;;;;;;;;;;5080108;28;19984;-80
2022/08/23 16:07:53;;;;;;;;;;;;;;;;;;5077356;28;19964;-77
2022/08/23 16:10:21;;;;;;;;;;;;;;;;;;5077001;28;19979;-80
2022/08/23 16:12:48;;;;;;;;;;;;;;;;;;5080052;28;20494;-80
2022/08/23 16:15:17;;;;;;;;;;;;;;;;;;5076798;28;20272;-77
2022/08/23 16:17:44;;;;;;;;;;;;;;;;;;5077427;28;19925;-79
2022/08/23 16:20:11;;;;;;;;;;;;;;;;;;5076217;28;20019;-79
2022/08/23 16:22:38;;;;;;;;;;;;;;;;;;5080149;28;19925;-79
2022/08/23 16:25:05;;;;;;;;;;;;;;;;;;5079286;28;19931;-80
2022/08/23 16:27:33;;;;;;;;;;;;;;;;;;5083145;28;20311;-80
2022/08/23 16:30:00;;;;;;;;;;;;;;;;;;5077031;28;19928;-77
2022/08/23 16:32:26;;;;;;;;;;;;;;;;;;5075062;28;19924;-77
2022/08/23 16:34:53;;;;;;;;;;;;;;;;;;5074937;28;20299;-77
2022/08/23 16:37:20;;;;;;;;;;;;;;;;;;5078455;28;19982;-79
2022/08/23 16:39:47;;;;;;;;;;;;;;;;;;5078703;28;19931;-80
2022/08/23 16:42:13;;;;;;;;;;;;;;;;;;5080319;28;19924;-80
2022/08/23 16:44:41;;;;;;;;;;;;;;;;;;5080973;28;20414;-80
2022/08/23 16:47:08;;;;;;;;;;;;;;;;;;5077322;28;20399;-78
2022/08/23 16:49:35;;;;;;;;;;;;;;;;;;5074025;28;19924;-80
2022/08/23 16:52:02;;;;;;;;;;;;;;;;;;5079686;28;20463;-79
2022/08/23 16:54:30;;;;;;;;;;;;;;;;;;5082377;28;19974;-78
2022/08/23 16:56:56;;;;;;;;;;;;;;;;;;5073813;28;19924;-77
2022/08/23 16:59:24;;;;;;;;;;;;;;;;;;5077804;28;20544;-80
2022/08/23 17:01:52;;;;;;;;;;;;;;;;;;5064149;28;19936;-80
2022/08/23 17:04:20;;;;;;;;;;;;;;;;;;5059011;28;19947;-80
2022/08/23 17:06:47;;;;;;;;;;;;;;;;;;5054422;28;20380;-77
2022/08/23 17:09:13;;;;;;;;;;;;;;;;;;5055537;28;19925;-75
2022/08/23 17:11:42;;;;;;;;;;;;;;;;;;5060144;28;19978;-75